sensor_id;sensor_type;location;lat;lon;timestamp;P1;durP1;ratioP1;P2;durP2;ratioP2
13339;SDS011;6739;47.398;8.774;2023-05-07T09:21:10;5.00;;;1.47;;
13339;SDS011;6739;47.398;8.774;2023-05-07T09:23:36;2.40;;;1.40;;
13339;SDS011;6739;47.398;8.774;2023-05-07T09:26:02;2.27;;;1.60;;
13339;SDS011;6739;47.398;8.774;2023-05-07T09:28:29;1.33;;;1.20;;
13339;SDS011;6739;47.398;8.774;2023-05-07T09:30:55;0.97;;;0.97;;
13339;SDS011;6739;47.398;8.774;2023-05-07T09:33:21;3.83;;;1.30;;
13339;SDS011;6739;47.398;8.774;2023-05-07T09:35:50;2.30;;;1.20;;
13339;SDS011;6739;47.398;8.774;2023-05-07T09:38:17;2.03;;;1.93;;
13339;SDS011;6739;47.398;8.774;2023-05-07T09:40:43;5.60;;;1.80;;
13339;SDS011;6739;47.398;8.774;2023-05-07T09:43:10;4.77;;;1.97;;
13339;SDS011;6739;47.398;8.774;2023-05-07T09:45:39;6.60;;;2.97;;
13339;SDS011;6739;47.398;8.774;2023-05-07T09:48:06;6.27;;;2.40;;
13339;SDS011;6739;47.398;8.774;2023-05-07T09:50:35;8.80;;;2.50;;
13339;SDS011;6739;47.398;8.774;2023-05-07T09:53:03;4.90;;;2.27;;
13339;SDS011;6739;47.398;8.774;2023-05-07T09:55:29;4.93;;;2.30;;
13339;SDS011;6739;47.398;8.774;2023-05-07T09:57:56;6.40;;;2.10;;
13339;SDS011;6739;47.398;8.774;2023-05-07T10:00:23;4.93;;;2.00;;
13339;SDS011;6739;47.398;8.774;2023-05-07T10:02:51;5.97;;;2.20;;
13339;SDS011;6739;47.398;8.774;2023-05-07T10:05:21;2.93;;;1.83;;
13339;SDS011;6739;47.398;8.774;2023-05-07T10:07:47;2.77;;;1.83;;
13339;SDS011;6739;47.398;8.774;2023-05-07T10:10:14;4.00;;;1.90;;
13339;SDS011;6739;47.398;8.774;2023-05-07T10:12:41;3.87;;;2.00;;
13339;SDS011;6739;47.398;8.774;2023-05-07T10:15:07;2.13;;;1.90;;
13339;SDS011;6739;47.398;8.774;2023-05-07T10:17:35;2.70;;;2.00;;
13339;SDS011;6739;47.398;8.774;2023-05-07T10:20:01;5.23;;;1.90;;
13339;SDS011;6739;47.398;8.774;2023-05-07T10:22:27;1.90;;;1.70;;
13339;SDS011;6739;47.398;8.774;2023-05-07T10:24:55;2.30;;;2.10;;
13339;SDS011;6739;47.398;8.774;2023-05-07T10:27:23;4.23;;;1.87;;
13339;SDS011;6739;47.398;8.774;2023-05-07T10:32:42;2.23;;;1.83;;
13339;SDS011;6739;47.398;8.774;2023-05-07T10:35:17;2.13;;;1.80;;
13339;SDS011;6739;47.398;8.774;2023-05-07T10:37:44;5.77;;;2.20;;
13339;SDS011;6739;47.398;8.774;2023-05-07T10:40:11;4.20;;;2.30;;
13339;SDS011;6739;47.398;8.774;2023-05-07T10:42:37;1.90;;;1.80;;
13339;SDS011;6739;47.398;8.774;2023-05-07T10:45:13;5.07;;;1.97;;
13339;SDS011;6739;47.398;8.774;2023-05-07T10:48:05;2.27;;;1.80;;
13339;SDS011;6739;47.398;8.774;2023-05-07T10:50:25;1.83;;;1.73;;
13339;SDS011;6739;47.398;8.774;2023-05-07T10:55:35;3.43;;;1.90;;
13339;SDS011;6739;47.398;8.774;2023-05-07T11:03:24;2.23;;;1.80;;
13339;SDS011;6739;47.398;8.774;2023-05-07T11:11:42;2.03;;;1.60;;
13339;SDS011;6739;47.398;8.774;2023-05-07T11:14:06;1.97;;;1.70;;
13339;SDS011;6739;47.398;8.774;2023-05-07T11:16:32;2.97;;;1.73;;
13339;SDS011;6739;47.398;8.774;2023-05-07T11:19:01;1.43;;;1.33;;
13339;SDS011;6739;47.398;8.774;2023-05-07T11:24:03;1.70;;;1.50;;
13339;SDS011;6739;47.398;8.774;2023-05-07T11:26:30;1.80;;;1.70;;
13339;SDS011;6739;47.398;8.774;2023-05-07T11:28:56;2.50;;;1.40;;
13339;SDS011;6739;47.398;8.774;2023-05-07T11:31:24;10.40;;;2.10;;
13339;SDS011;6739;47.398;8.774;2023-05-07T11:33:51;6.57;;;2.00;;
13339;SDS011;6739;47.398;8.774;2023-05-07T11:36:17;4.63;;;1.80;;
13339;SDS011;6739;47.398;8.774;2023-05-07T11:38:44;4.17;;;1.90;;
13339;SDS011;6739;47.398;8.774;2023-05-07T11:41:10;5.10;;;2.20;;
13339;SDS011;6739;47.398;8.774;2023-05-07T11:43:36;3.03;;;1.87;;
13339;SDS011;6739;47.398;8.774;2023-05-07T11:46:09;2.97;;;2.10;;
13339;SDS011;6739;47.398;8.774;2023-05-07T11:48:35;5.27;;;1.97;;
13339;SDS011;6739;47.398;8.774;2023-05-07T11:51:02;2.57;;;2.03;;
13339;SDS011;6739;47.398;8.774;2023-05-07T11:53:35;2.67;;;1.97;;
13339;SDS011;6739;47.398;8.774;2023-05-07T11:56:05;3.10;;;1.90;;
13339;SDS011;6739;47.398;8.774;2023-05-07T11:58:31;6.27;;;2.30;;
13339;SDS011;6739;47.398;8.774;2023-05-07T12:00:57;4.80;;;2.50;;
13339;SDS011;6739;47.398;8.774;2023-05-07T12:03:23;4.63;;;2.17;;
13339;SDS011;6739;47.398;8.774;2023-05-07T12:05:49;2.40;;;2.07;;
13339;SDS011;6739;47.398;8.774;2023-05-07T12:08:16;2.93;;;2.10;;
13339;SDS011;6739;47.398;8.774;2023-05-07T12:10:42;2.50;;;2.27;;
13339;SDS011;6739;47.398;8.774;2023-05-07T12:13:15;3.10;;;2.53;;
13339;SDS011;6739;47.398;8.774;2023-05-07T12:15:42;4.33;;;2.40;;
13339;SDS011;6739;47.398;8.774;2023-05-07T12:18:08;5.50;;;2.33;;
13339;SDS011;6739;47.398;8.774;2023-05-07T12:20:34;3.10;;;2.50;;
13339;SDS011;6739;47.398;8.774;2023-05-07T12:23:01;2.20;;;2.00;;
13339;SDS011;6739;47.398;8.774;2023-05-07T12:25:29;3.30;;;1.90;;
13339;SDS011;6739;47.398;8.774;2023-05-07T12:27:56;3.07;;;2.00;;
13339;SDS011;6739;47.398;8.774;2023-05-07T12:30:23;2.93;;;1.80;;
13339;SDS011;6739;47.398;8.774;2023-05-07T12:32:52;3.33;;;1.90;;
13339;SDS011;6739;47.398;8.774;2023-05-07T12:35:25;2.87;;;1.83;;
13339;SDS011;6739;47.398;8.774;2023-05-07T12:37:55;5.30;;;1.97;;
13339;SDS011;6739;47.398;8.774;2023-05-07T12:40:21;9.10;;;2.67;;
13339;SDS011;6739;47.398;8.774;2023-05-07T12:42:47;5.47;;;2.10;;
13339;SDS011;6739;47.398;8.774;2023-05-07T12:45:19;3.93;;;2.20;;
13339;SDS011;6739;47.398;8.774;2023-05-07T12:47:45;2.10;;;1.90;;
13339;SDS011;6739;47.398;8.774;2023-05-07T12:50:12;3.90;;;1.90;;
13339;SDS011;6739;47.398;8.774;2023-05-07T12:52:39;4.43;;;2.00;;
13339;SDS011;6739;47.398;8.774;2023-05-07T12:55:05;2.03;;;1.73;;
13339;SDS011;6739;47.398;8.774;2023-05-07T12:57:37;2.00;;;1.70;;
13339;SDS011;6739;47.398;8.774;2023-05-07T13:00:03;3.00;;;1.93;;
13339;SDS011;6739;47.398;8.774;2023-05-07T13:02:47;6.47;;;1.83;;
13339;SDS011;6739;47.398;8.774;2023-05-07T13:05:13;2.00;;;1.80;;
13339;SDS011;6739;47.398;8.774;2023-05-07T13:07:39;2.17;;;1.70;;
13339;SDS011;6739;47.398;8.774;2023-05-07T13:10:06;3.33;;;1.90;;
13339;SDS011;6739;47.398;8.774;2023-05-07T13:12:32;2.83;;;1.80;;
13339;SDS011;6739;47.398;8.774;2023-05-07T13:14:58;1.80;;;1.50;;
13339;SDS011;6739;47.398;8.774;2023-05-07T13:17:24;2.23;;;1.60;;
13339;SDS011;6739;47.398;8.774;2023-05-07T13:19:50;2.33;;;1.90;;
13339;SDS011;6739;47.398;8.774;2023-05-07T13:22:16;3.20;;;2.00;;
13339;SDS011;6739;47.398;8.774;2023-05-07T13:24:41;2.33;;;1.83;;
13339;SDS011;6739;47.398;8.774;2023-05-07T13:27:08;3.27;;;1.90;;
13339;SDS011;6739;47.398;8.774;2023-05-07T13:29:34;1.70;;;1.60;;
13339;SDS011;6739;47.398;8.774;2023-05-07T13:32:00;1.93;;;1.60;;
13339;SDS011;6739;47.398;8.774;2023-05-07T13:34:26;1.93;;;1.67;;
13339;SDS011;6739;47.398;8.774;2023-05-07T13:36:52;2.10;;;1.70;;
13339;SDS011;6739;47.398;8.774;2023-05-07T13:39:18;2.53;;;1.80;;
13339;SDS011;6739;47.398;8.774;2023-05-07T13:41:44;2.47;;;1.83;;
13339;SDS011;6739;47.398;8.774;2023-05-07T13:44:10;2.13;;;1.60;;
13339;SDS011;6739;47.398;8.774;2023-05-07T13:46:36;2.63;;;1.87;;
13339;SDS011;6739;47.398;8.774;2023-05-07T13:49:02;3.90;;;1.47;;
13339;SDS011;6739;47.398;8.774;2023-05-07T13:51:28;1.93;;;1.73;;
13339;SDS011;6739;47.398;8.774;2023-05-07T13:53:54;2.70;;;1.50;;
13339;SDS011;6739;47.398;8.774;2023-05-07T13:56:20;2.60;;;1.50;;
13339;SDS011;6739;47.398;8.774;2023-05-07T13:58:46;3.27;;;1.87;;
13339;SDS011;6739;47.398;8.774;2023-05-07T14:01:12;2.07;;;1.60;;
13339;SDS011;6739;47.398;8.774;2023-05-07T14:03:38;1.73;;;1.63;;
13339;SDS011;6739;47.398;8.774;2023-05-07T14:06:04;1.87;;;1.77;;
13339;SDS011;6739;47.398;8.774;2023-05-07T14:08:30;1.60;;;1.50;;
13339;SDS011;6739;47.398;8.774;2023-05-07T14:10:56;2.00;;;1.90;;
13339;SDS011;6739;47.398;8.774;2023-05-07T14:13:22;2.50;;;1.53;;
13339;SDS011;6739;47.398;8.774;2023-05-07T14:15:48;1.73;;;1.63;;
13339;SDS011;6739;47.398;8.774;2023-05-07T14:18:15;1.80;;;1.70;;
13339;SDS011;6739;47.398;8.774;2023-05-07T14:20:41;1.70;;;1.60;;
13339;SDS011;6739;47.398;8.774;2023-05-07T14:23:08;2.77;;;1.37;;
13339;SDS011;6739;47.398;8.774;2023-05-07T14:25:34;1.70;;;1.50;;
13339;SDS011;6739;47.398;8.774;2023-05-07T14:28:00;1.53;;;1.43;;
13339;SDS011;6739;47.398;8.774;2023-05-07T14:30:26;2.60;;;1.40;;
13339;SDS011;6739;47.398;8.774;2023-05-07T14:32:52;1.60;;;1.50;;
13339;SDS011;6739;47.398;8.774;2023-05-07T14:35:18;2.33;;;1.47;;
13339;SDS011;6739;47.398;8.774;2023-05-07T14:37:44;2.43;;;1.50;;
13339;SDS011;6739;47.398;8.774;2023-05-07T14:40:10;1.77;;;1.40;;
13339;SDS011;6739;47.398;8.774;2023-05-07T14:42:36;1.60;;;1.40;;
13339;SDS011;6739;47.398;8.774;2023-05-07T14:45:02;2.33;;;1.50;;
13339;SDS011;6739;47.398;8.774;2023-05-07T14:47:28;1.40;;;1.30;;
13339;SDS011;6739;47.398;8.774;2023-05-07T14:49:54;1.40;;;1.13;;
13339;SDS011;6739;47.398;8.774;2023-05-07T14:52:22;1.50;;;1.40;;
13339;SDS011;6739;47.398;8.774;2023-05-07T14:54:48;1.97;;;1.30;;
13339;SDS011;6739;47.398;8.774;2023-05-07T14:57:14;1.40;;;1.30;;
13339;SDS011;6739;47.398;8.774;2023-05-07T14:59:43;1.50;;;1.40;;
13339;SDS011;6739;47.398;8.774;2023-05-07T15:02:10;1.40;;;1.30;;
13339;SDS011;6739;47.398;8.774;2023-05-07T15:04:37;1.50;;;1.40;;
13339;SDS011;6739;47.398;8.774;2023-05-07T15:07:11;1.87;;;1.40;;
13339;SDS011;6739;47.398;8.774;2023-05-07T15:09:39;1.70;;;1.60;;
13339;SDS011;6739;47.398;8.774;2023-05-07T15:12:05;1.47;;;1.37;;
13339;SDS011;6739;47.398;8.774;2023-05-07T15:14:32;1.50;;;1.40;;
13339;SDS011;6739;47.398;8.774;2023-05-07T15:16:58;1.80;;;1.70;;
13339;SDS011;6739;47.398;8.774;2023-05-07T15:19:24;1.90;;;1.73;;
13339;SDS011;6739;47.398;8.774;2023-05-07T15:21:54;1.87;;;1.67;;
13339;SDS011;6739;47.398;8.774;2023-05-07T15:24:20;1.40;;;1.30;;
13339;SDS011;6739;47.398;8.774;2023-05-07T15:26:46;1.73;;;1.53;;
13339;SDS011;6739;47.398;8.774;2023-05-07T15:29:12;1.47;;;1.37;;
13339;SDS011;6739;47.398;8.774;2023-05-07T15:31:38;1.53;;;1.40;;
13339;SDS011;6739;47.398;8.774;2023-05-07T15:34:04;1.50;;;1.40;;
13339;SDS011;6739;47.398;8.774;2023-05-07T15:36:30;1.40;;;1.30;;
13339;SDS011;6739;47.398;8.774;2023-05-07T15:38:56;1.70;;;1.50;;
13339;SDS011;6739;47.398;8.774;2023-05-07T15:41:24;3.70;;;1.87;;
13339;SDS011;6739;47.398;8.774;2023-05-07T15:43:50;2.63;;;1.73;;
13339;SDS011;6739;47.398;8.774;2023-05-07T15:46:20;2.37;;;1.63;;
13339;SDS011;6739;47.398;8.774;2023-05-07T15:48:48;3.20;;;1.63;;
13339;SDS011;6739;47.398;8.774;2023-05-07T15:51:14;3.70;;;1.87;;
13339;SDS011;6739;47.398;8.774;2023-05-07T15:53:41;7.17;;;2.40;;
13339;SDS011;6739;47.398;8.774;2023-05-07T15:56:07;14.50;;;2.77;;
13339;SDS011;6739;47.398;8.774;2023-05-07T15:58:34;9.43;;;2.50;;
13339;SDS011;6739;47.398;8.774;2023-05-07T16:01:00;7.67;;;2.70;;
13339;SDS011;6739;47.398;8.774;2023-05-07T16:03:27;8.33;;;2.47;;
13339;SDS011;6739;47.398;8.774;2023-05-07T16:05:53;8.93;;;2.90;;
13339;SDS011;6739;47.398;8.774;2023-05-07T16:08:21;10.93;;;3.30;;
13339;SDS011;6739;47.398;8.774;2023-05-07T16:10:47;12.23;;;3.50;;
13339;SDS011;6739;47.398;8.774;2023-05-07T16:13:13;11.27;;;2.93;;
13339;SDS011;6739;47.398;8.774;2023-05-07T16:15:43;12.77;;;3.67;;
13339;SDS011;6739;47.398;8.774;2023-05-07T16:18:09;11.93;;;3.40;;
13339;SDS011;6739;47.398;8.774;2023-05-07T16:20:36;11.90;;;3.80;;
13339;SDS011;6739;47.398;8.774;2023-05-07T16:23:01;19.37;;;3.47;;
13339;SDS011;6739;47.398;8.774;2023-05-07T16:25:28;15.97;;;4.23;;
13339;SDS011;6739;47.398;8.774;2023-05-07T16:28:00;13.00;;;3.97;;
13339;SDS011;6739;47.398;8.774;2023-05-07T16:30:26;10.47;;;3.87;;
13339;SDS011;6739;47.398;8.774;2023-05-07T16:32:52;10.63;;;3.93;;
13339;SDS011;6739;47.398;8.774;2023-05-07T16:35:18;14.23;;;3.93;;
13339;SDS011;6739;47.398;8.774;2023-05-07T16:37:44;9.70;;;3.20;;
13339;SDS011;6739;47.398;8.774;2023-05-07T16:40:10;10.60;;;4.03;;
13339;SDS011;6739;47.398;8.774;2023-05-07T16:42:36;8.87;;;3.40;;
13339;SDS011;6739;47.398;8.774;2023-05-07T16:45:03;7.07;;;3.20;;
13339;SDS011;6739;47.398;8.774;2023-05-07T16:47:30;10.87;;;3.20;;
13339;SDS011;6739;47.398;8.774;2023-05-07T16:49:56;7.40;;;2.57;;
13339;SDS011;6739;47.398;8.774;2023-05-07T16:52:22;10.00;;;2.87;;
13339;SDS011;6739;47.398;8.774;2023-05-07T16:54:48;10.10;;;2.97;;
13339;SDS011;6739;47.398;8.774;2023-05-07T16:57:14;10.90;;;2.93;;
13339;SDS011;6739;47.398;8.774;2023-05-07T16:59:40;9.33;;;2.30;;
13339;SDS011;6739;47.398;8.774;2023-05-07T17:02:06;5.47;;;2.20;;
13339;SDS011;6739;47.398;8.774;2023-05-07T17:04:32;6.10;;;2.30;;
13339;SDS011;6739;47.398;8.774;2023-05-07T17:06:58;8.03;;;2.37;;
13339;SDS011;6739;47.398;8.774;2023-05-07T17:09:25;8.53;;;2.60;;
13339;SDS011;6739;47.398;8.774;2023-05-07T17:11:51;6.90;;;2.67;;
13339;SDS011;6739;47.398;8.774;2023-05-07T17:14:17;5.87;;;2.60;;
13339;SDS011;6739;47.398;8.774;2023-05-07T17:16:43;5.17;;;2.50;;
13339;SDS011;6739;47.398;8.774;2023-05-07T17:19:09;7.40;;;2.63;;
13339;SDS011;6739;47.398;8.774;2023-05-07T17:21:35;6.40;;;2.10;;
13339;SDS011;6739;47.398;8.774;2023-05-07T17:24:01;12.57;;;2.30;;
13339;SDS011;6739;47.398;8.774;2023-05-07T17:26:27;4.73;;;1.80;;
13339;SDS011;6739;47.398;8.774;2023-05-07T17:28:55;6.63;;;1.83;;
13339;SDS011;6739;47.398;8.774;2023-05-07T17:31:21;3.50;;;1.70;;
13339;SDS011;6739;47.398;8.774;2023-05-07T17:33:47;3.13;;;1.73;;
13339;SDS011;6739;47.398;8.774;2023-05-07T17:36:13;5.00;;;1.97;;
13339;SDS011;6739;47.398;8.774;2023-05-07T17:38:39;2.60;;;1.50;;
13339;SDS011;6739;47.398;8.774;2023-05-07T17:41:05;3.47;;;1.90;;
13339;SDS011;6739;47.398;8.774;2023-05-07T17:43:31;4.50;;;1.97;;
13339;SDS011;6739;47.398;8.774;2023-05-07T17:45:57;4.50;;;1.70;;
13339;SDS011;6739;47.398;8.774;2023-05-07T17:48:23;3.33;;;1.83;;
13339;SDS011;6739;47.398;8.774;2023-05-07T17:50:49;2.20;;;1.77;;
13339;SDS011;6739;47.398;8.774;2023-05-07T17:53:15;4.67;;;1.80;;
13339;SDS011;6739;47.398;8.774;2023-05-07T17:55:41;5.87;;;1.73;;
13339;SDS011;6739;47.398;8.774;2023-05-07T17:58:08;3.30;;;1.57;;
13339;SDS011;6739;47.398;8.774;2023-05-07T18:00:34;2.63;;;1.90;;
13339;SDS011;6739;47.398;8.774;2023-05-07T18:03:00;4.60;;;1.67;;
13339;SDS011;6739;47.398;8.774;2023-05-07T18:05:26;5.07;;;1.73;;
13339;SDS011;6739;47.398;8.774;2023-05-07T18:07:52;4.47;;;1.67;;
13339;SDS011;6739;47.398;8.774;2023-05-07T18:10:19;4.37;;;1.50;;
13339;SDS011;6739;47.398;8.774;2023-05-07T18:12:44;2.47;;;1.43;;
13339;SDS011;6739;47.398;8.774;2023-05-07T18:15:11;2.10;;;1.23;;
13339;SDS011;6739;47.398;8.774;2023-05-07T18:17:36;2.50;;;1.23;;
13339;SDS011;6739;47.398;8.774;2023-05-07T18:20:03;1.63;;;1.40;;
13339;SDS011;6739;47.398;8.774;2023-05-07T18:22:35;2.97;;;1.57;;
13339;SDS011;6739;47.398;8.774;2023-05-07T18:25:01;2.47;;;1.60;;
13339;SDS011;6739;47.398;8.774;2023-05-07T18:27:27;2.87;;;1.20;;
13339;SDS011;6739;47.398;8.774;2023-05-07T18:29:53;3.23;;;1.60;;
13339;SDS011;6739;47.398;8.774;2023-05-07T18:32:19;15.23;;;1.83;;
13339;SDS011;6739;47.398;8.774;2023-05-07T18:34:45;9.20;;;1.30;;
13339;SDS011;6739;47.398;8.774;2023-05-07T18:37:11;2.60;;;1.30;;
13339;SDS011;6739;47.398;8.774;2023-05-07T18:39:37;5.20;;;1.50;;
13339;SDS011;6739;47.398;8.774;2023-05-07T18:42:03;3.67;;;1.40;;
13339;SDS011;6739;47.398;8.774;2023-05-07T18:44:30;4.33;;;1.10;;
13339;SDS011;6739;47.398;8.774;2023-05-07T18:46:57;2.50;;;1.30;;
13339;SDS011;6739;47.398;8.774;2023-05-07T18:49:23;4.67;;;1.20;;
13339;SDS011;6739;47.398;8.774;2023-05-07T18:51:49;2.83;;;1.20;;
13339;SDS011;6739;47.398;8.774;2023-05-07T18:54:17;4.50;;;1.37;;
13339;SDS011;6739;47.398;8.774;2023-05-07T18:56:43;4.27;;;1.53;;
13339;SDS011;6739;47.398;8.774;2023-05-07T18:59:09;2.43;;;1.30;;
13339;SDS011;6739;47.398;8.774;2023-05-07T19:01:35;1.13;;;1.00;;
13339;SDS011;6739;47.398;8.774;2023-05-07T19:04:01;2.03;;;1.17;;
13339;SDS011;6739;47.398;8.774;2023-05-07T19:06:27;3.00;;;1.10;;
13339;SDS011;6739;47.398;8.774;2023-05-07T19:08:53;2.13;;;1.10;;
13339;SDS011;6739;47.398;8.774;2023-05-07T19:11:21;1.83;;;1.10;;
13339;SDS011;6739;47.398;8.774;2023-05-07T19:13:47;3.40;;;1.10;;
13339;SDS011;6739;47.398;8.774;2023-05-07T19:16:13;2.67;;;1.43;;
13339;SDS011;6739;47.398;8.774;2023-05-07T19:18:39;2.63;;;1.10;;
13339;SDS011;6739;47.398;8.774;2023-05-07T19:21:05;1.00;;;1.00;;
13339;SDS011;6739;47.398;8.774;2023-05-07T19:23:32;3.80;;;1.30;;
13339;SDS011;6739;47.398;8.774;2023-05-07T19:25:58;1.53;;;1.10;;
13339;SDS011;6739;47.398;8.774;2023-05-07T19:28:24;2.33;;;1.03;;
13339;SDS011;6739;47.398;8.774;2023-05-07T19:30:50;2.07;;;1.17;;
13339;SDS011;6739;47.398;8.774;2023-05-07T19:33:16;1.40;;;0.83;;
13339;SDS011;6739;47.398;8.774;2023-05-07T19:35:42;1.37;;;1.10;;
13339;SDS011;6739;47.398;8.774;2023-05-07T19:38:09;1.10;;;0.77;;
13339;SDS011;6739;47.398;8.774;2023-05-07T19:40:35;1.13;;;0.90;;
13339;SDS011;6739;47.398;8.774;2023-05-07T19:43:01;1.90;;;1.47;;
13339;SDS011;6739;47.398;8.774;2023-05-07T19:45:27;3.20;;;1.03;;
13339;SDS011;6739;47.398;8.774;2023-05-07T19:47:53;1.00;;;0.80;;
13339;SDS011;6739;47.398;8.774;2023-05-07T19:50:19;1.37;;;1.03;;
13339;SDS011;6739;47.398;8.774;2023-05-07T19:52:46;2.87;;;1.00;;
13339;SDS011;6739;47.398;8.774;2023-05-07T19:55:12;3.03;;;1.00;;
13339;SDS011;6739;47.398;8.774;2023-05-07T19:57:38;1.77;;;1.10;;
13339;SDS011;6739;47.398;8.774;2023-05-07T20:00:05;2.90;;;1.00;;
13339;SDS011;6739;47.398;8.774;2023-05-07T20:02:31;3.43;;;1.30;;
13339;SDS011;6739;47.398;8.774;2023-05-07T20:04:57;2.83;;;1.17;;
13339;SDS011;6739;47.398;8.774;2023-05-07T20:07:23;3.43;;;1.10;;
13339;SDS011;6739;47.398;8.774;2023-05-07T20:09:49;4.30;;;0.90;;
13339;SDS011;6739;47.398;8.774;2023-05-07T20:12:15;1.63;;;0.93;;
13339;SDS011;6739;47.398;8.774;2023-05-07T20:14:42;1.30;;;0.97;;
13339;SDS011;6739;47.398;8.774;2023-05-07T20:17:07;1.93;;;0.93;;
13339;SDS011;6739;47.398;8.774;2023-05-07T20:19:33;2.90;;;1.07;;
13339;SDS011;6739;47.398;8.774;2023-05-07T20:21:59;4.10;;;1.10;;
13339;SDS011;6739;47.398;8.774;2023-05-07T20:24:25;3.87;;;0.93;;
13339;SDS011;6739;47.398;8.774;2023-05-07T20:26:51;6.03;;;1.50;;
13339;SDS011;6739;47.398;8.774;2023-05-07T20:29:18;15.77;;;1.90;;
13339;SDS011;6739;47.398;8.774;2023-05-07T20:31:44;15.27;;;2.00;;
13339;SDS011;6739;47.398;8.774;2023-05-07T20:34:10;9.00;;;1.90;;
13339;SDS011;6739;47.398;8.774;2023-05-07T20:36:36;14.73;;;2.07;;
13339;SDS011;6739;47.398;8.774;2023-05-07T20:39:02;12.23;;;1.70;;
13339;SDS011;6739;47.398;8.774;2023-05-07T20:41:28;5.03;;;1.80;;
13339;SDS011;6739;47.398;8.774;2023-05-07T20:43:54;7.80;;;1.40;;
13339;SDS011;6739;47.398;8.774;2023-05-07T20:46:21;11.37;;;1.63;;
13339;SDS011;6739;47.398;8.774;2023-05-07T20:48:48;5.43;;;1.57;;
13339;SDS011;6739;47.398;8.774;2023-05-07T20:51:15;6.93;;;1.63;;
13339;SDS011;6739;47.398;8.774;2023-05-07T20:53:41;12.03;;;1.73;;
13339;SDS011;6739;47.398;8.774;2023-05-07T20:56:07;4.83;;;1.00;;
13339;SDS011;6739;47.398;8.774;2023-05-07T20:58:33;2.43;;;1.07;;
13339;SDS011;6739;47.398;8.774;2023-05-07T21:01:00;6.63;;;1.20;;
13339;SDS011;6739;47.398;8.774;2023-05-07T21:03:26;4.73;;;1.03;;
13339;SDS011;6739;47.398;8.774;2023-05-07T21:05:52;1.97;;;0.90;;
13339;SDS011;6739;47.398;8.774;2023-05-07T21:08:18;6.63;;;0.90;;
13339;SDS011;6739;47.398;8.774;2023-05-07T21:10:45;1.23;;;0.77;;
13339;SDS011;6739;47.398;8.774;2023-05-07T21:13:11;1.77;;;1.23;;
13339;SDS011;6739;47.398;8.774;2023-05-07T21:15:37;9.50;;;1.70;;
13339;SDS011;6739;47.398;8.774;2023-05-07T21:18:03;2.90;;;1.33;;
13339;SDS011;6739;47.398;8.774;2023-05-07T21:20:29;1.03;;;0.97;;
13339;SDS011;6739;47.398;8.774;2023-05-07T21:22:55;1.83;;;1.00;;
13339;SDS011;6739;47.398;8.774;2023-05-07T21:25:21;2.10;;;1.07;;
13339;SDS011;6739;47.398;8.774;2023-05-07T21:27:47;3.23;;;0.97;;
13339;SDS011;6739;47.398;8.774;2023-05-07T21:30:13;0.87;;;0.80;;
13339;SDS011;6739;47.398;8.774;2023-05-07T21:32:40;2.07;;;0.80;;
13339;SDS011;6739;47.398;8.774;2023-05-07T21:35:06;2.73;;;1.20;;
13339;SDS011;6739;47.398;8.774;2023-05-07T21:37:32;2.10;;;1.07;;
13339;SDS011;6739;47.398;8.774;2023-05-07T21:39:58;1.97;;;1.10;;
13339;SDS011;6739;47.398;8.774;2023-05-07T21:42:24;1.53;;;0.80;;
13339;SDS011;6739;47.398;8.774;2023-05-07T21:44:50;2.30;;;1.10;;
13339;SDS011;6739;47.398;8.774;2023-05-07T21:47:16;1.87;;;1.10;;
13339;SDS011;6739;47.398;8.774;2023-05-07T21:49:42;1.53;;;0.80;;
13339;SDS011;6739;47.398;8.774;2023-05-07T21:52:11;1.67;;;1.00;;
13339;SDS011;6739;47.398;8.774;2023-05-07T21:54:37;0.83;;;0.77;;
13339;SDS011;6739;47.398;8.774;2023-05-07T21:57:03;0.90;;;0.90;;
13339;SDS011;6739;47.398;8.774;2023-05-07T21:59:29;1.37;;;0.90;;
13339;SDS011;6739;47.398;8.774;2023-05-07T22:01:55;0.60;;;0.60;;
13339;SDS011;6739;47.398;8.774;2023-05-07T22:04:21;1.90;;;0.80;;
13339;SDS011;6739;47.398;8.774;2023-05-07T22:06:47;0.60;;;0.43;;
13339;SDS011;6739;47.398;8.774;2023-05-07T22:09:14;0.80;;;0.80;;
13339;SDS011;6739;47.398;8.774;2023-05-07T22:11:39;0.70;;;0.70;;
13339;SDS011;6739;47.398;8.774;2023-05-07T22:14:05;0.97;;;0.70;;
13339;SDS011;6739;47.398;8.774;2023-05-07T22:16:31;1.10;;;0.70;;
13339;SDS011;6739;47.398;8.774;2023-05-07T22:18:57;3.30;;;0.73;;
13339;SDS011;6739;47.398;8.774;2023-05-07T22:21:23;1.50;;;0.83;;
13339;SDS011;6739;47.398;8.774;2023-05-07T22:23:49;2.47;;;0.83;;
13339;SDS011;6739;47.398;8.774;2023-05-07T22:26:15;1.53;;;0.90;;
13339;SDS011;6739;47.398;8.774;2023-05-07T22:28:41;2.53;;;0.93;;
13339;SDS011;6739;47.398;8.774;2023-05-07T22:31:07;2.17;;;0.97;;
13339;SDS011;6739;47.398;8.774;2023-05-07T22:33:33;6.50;;;1.00;;
13339;SDS011;6739;47.398;8.774;2023-05-07T22:36:00;1.47;;;1.10;;
13339;SDS011;6739;47.398;8.774;2023-05-07T22:38:25;0.57;;;0.57;;
13339;SDS011;6739;47.398;8.774;2023-05-07T22:40:51;0.63;;;0.60;;
13339;SDS011;6739;47.398;8.774;2023-05-07T22:43:17;3.27;;;0.90;;
13339;SDS011;6739;47.398;8.774;2023-05-07T22:45:43;2.20;;;0.87;;
13339;SDS011;6739;47.398;8.774;2023-05-07T22:48:09;0.70;;;0.70;;
13339;SDS011;6739;47.398;8.774;2023-05-07T22:50:36;0.87;;;0.83;;
13339;SDS011;6739;47.398;8.774;2023-05-07T22:53:02;0.80;;;0.70;;
13339;SDS011;6739;47.398;8.774;2023-05-07T22:55:28;0.87;;;0.60;;
13339;SDS011;6739;47.398;8.774;2023-05-07T22:57:54;2.67;;;0.70;;
13339;SDS011;6739;47.398;8.774;2023-05-07T23:00:20;0.73;;;0.70;;
13339;SDS011;6739;47.398;8.774;2023-05-07T23:02:46;1.30;;;0.87;;
13339;SDS011;6739;47.398;8.774;2023-05-07T23:05:12;0.80;;;0.80;;
13339;SDS011;6739;47.398;8.774;2023-05-07T23:07:38;1.00;;;0.80;;
13339;SDS011;6739;47.398;8.774;2023-05-07T23:10:04;1.93;;;0.70;;
13339;SDS011;6739;47.398;8.774;2023-05-07T23:12:30;0.60;;;0.60;;
13339;SDS011;6739;47.398;8.774;2023-05-07T23:14:56;1.60;;;0.87;;
13339;SDS011;6739;47.398;8.774;2023-05-07T23:17:22;1.27;;;0.80;;
13339;SDS011;6739;47.398;8.774;2023-05-07T23:19:48;1.63;;;0.90;;
13339;SDS011;6739;47.398;8.774;2023-05-07T23:22:14;1.83;;;0.90;;
13339;SDS011;6739;47.398;8.774;2023-05-07T23:24:40;0.77;;;0.77;;
13339;SDS011;6739;47.398;8.774;2023-05-07T23:27:06;1.33;;;0.70;;
13339;SDS011;6739;47.398;8.774;2023-05-07T23:29:32;1.97;;;0.70;;
13339;SDS011;6739;47.398;8.774;2023-05-07T23:31:59;2.00;;;0.93;;
13339;SDS011;6739;47.398;8.774;2023-05-07T23:34:25;0.83;;;0.70;;
13339;SDS011;6739;47.398;8.774;2023-05-07T23:36:51;1.67;;;0.80;;
13339;SDS011;6739;47.398;8.774;2023-05-07T23:39:17;0.60;;;0.50;;
13339;SDS011;6739;47.398;8.774;2023-05-07T23:41:43;0.90;;;0.70;;
13339;SDS011;6739;47.398;8.774;2023-05-07T23:44:09;2.30;;;0.60;;
13339;SDS011;6739;47.398;8.774;2023-05-07T23:46:35;1.03;;;0.80;;
13339;SDS011;6739;47.398;8.774;2023-05-07T23:49:01;1.03;;;0.63;;
13339;SDS011;6739;47.398;8.774;2023-05-07T23:51:27;2.00;;;0.70;;
13339;SDS011;6739;47.398;8.774;2023-05-07T23:53:53;0.83;;;0.70;;
13339;SDS011;6739;47.398;8.774;2023-05-07T23:56:19;0.43;;;0.43;;
13339;SDS011;6739;47.398;8.774;2023-05-07T23:58:45;1.73;;;0.50;;
